Time;durP1;ratioP1;P1;durP2;ratioP2;P2;SDS_P1;SDS_P2;PMS_P1;PMS_P2;Temp;Humidity;BMP_temperature;BMP_pressure;BME280_temperature;BME280_humidity;BME280_pressure;Samples;Min_cycle;Max_cycle;Signal;HPM_P1;HPM_P2
2023/03/23 00:02:13;;;;;;;3.83;1.33;;;;;;;;;;5061460;28;20112;-73
2023/03/23 00:04:38;;;;;;;2.75;1.13;;;;;;;;;;5063944;28;20103;-73
2023/03/23 00:07:03;;;;;;;4.05;1.70;;;;;;;;;;5062948;28;20021;-73
2023/03/23 00:09:29;;;;;;;3.20;1.47;;;;;;;;;;5054502;28;20458;-73
2023/03/23 00:11:56;;;;;;;0.95;0.40;;;;;;;;;;5062895;28;20267;-73
2023/03/23 00:14:22;;;;;;;5.50;1.40;;;;;;;;;;5060610;28;20024;-73
2023/03/23 00:16:48;;;;;;;6.28;1.77;;;;;;;;;;5054695;28;20039;-72
2023/03/23 00:19:13;;;;;;;4.88;1.73;;;;;;;;;;5062776;28;20103;-72
2023/03/23 00:21:39;;;;;;;3.83;1.40;;;;;;;;;;5067943;28;20032;-73
2023/03/23 00:24:05;;;;;;;6.65;1.98;;;;;;;;;;5057568;28;20025;-72
2023/03/23 00:26:33;;;;;;;2.63;0.80;;;;;;;;;;5057712;28;20013;-73
2023/03/23 00:29:00;;;;;;;5.30;1.63;;;;;;;;;;5058888;28;20173;-72
2023/03/23 00:31:32;;;;;;;3.50;1.50;;;;;;;;;;5053625;28;20041;-74
2023/03/23 00:34:00;;;;;;;2.50;1.35;;;;;;;;;;5050072;28;20028;-73
2023/03/23 00:36:26;;;;;;;4.35;1.48;;;;;;;;;;5055836;28;20538;-72
2023/03/23 00:38:51;;;;;;;2.20;1.02;;;;;;;;;;5058299;28;20123;-72
2023/03/23 00:41:16;;;;;;;4.10;1.27;;;;;;;;;;5061338;28;20029;-72
2023/03/23 00:43:41;;;;;;;2.73;0.93;;;;;;;;;;5054126;28;20298;-73
2023/03/23 00:46:09;;;;;;;2.40;0.90;;;;;;;;;;5061586;28;20287;-72
2023/03/23 00:48:35;;;;;;;5.60;1.20;;;;;;;;;;5061707;28;20781;-72
2023/03/23 00:51:05;;;;;;;5.97;1.05;;;;;;;;;;5051560;28;20024;-72
2023/03/23 00:53:30;;;;;;;2.90;0.80;;;;;;;;;;5050326;28;20043;-73
2023/03/23 00:55:56;;;;;;;0.50;0.50;;;;;;;;;;5062975;28;20029;-72
2023/03/23 00:58:21;;;;;;;5.75;1.00;;;;;;;;;;5056241;28;20289;-73
2023/03/23 01:00:46;;;;;;;0.73;0.53;;;;;;;;;;5053639;28;20017;-71
2023/03/23 01:03:17;;;;;;;1.60;0.70;;;;;;;;;;5051481;28;20406;-72
2023/03/23 01:05:43;;;;;;;2.22;1.33;;;;;;;;;;5059133;28;20357;-72
2023/03/23 01:08:10;;;;;;;4.40;1.17;;;;;;;;;;5053445;28;20096;-72
2023/03/23 01:10:38;;;;;;;3.22;1.10;;;;;;;;;;5049895;28;20488;-71
2023/03/23 01:13:04;;;;;;;2.90;1.27;;;;;;;;;;5058989;28;20052;-71
2023/03/23 01:15:29;;;;;;;1.42;0.90;;;;;;;;;;5060371;28;20102;-72
2023/03/23 01:17:55;;;;;;;3.42;0.95;;;;;;;;;;5051016;28;20469;-72
2023/03/23 01:20:20;;;;;;;4.60;1.20;;;;;;;;;;5051055;28;20024;-72
2023/03/23 01:22:45;;;;;;;3.78;0.93;;;;;;;;;;5062270;28;20036;-72
2023/03/23 01:25:11;;;;;;;1.40;0.85;;;;;;;;;;5058544;28;20012;-72
2023/03/23 01:27:36;;;;;;;4.63;1.38;;;;;;;;;;5058879;28;20028;-71
2023/03/23 01:30:02;;;;;;;2.63;1.08;;;;;;;;;;5060862;28;20013;-72
2023/03/23 01:32:28;;;;;;;3.10;1.10;;;;;;;;;;5059484;28;20035;-71
2023/03/23 01:34:53;;;;;;;1.30;0.88;;;;;;;;;;5067639;28;20071;-71
2023/03/23 01:37:19;;;;;;;1.43;0.80;;;;;;;;;;5060597;28;20048;-72
2023/03/23 01:39:44;;;;;;;3.15;1.13;;;;;;;;;;5063772;28;20319;-71
2023/03/23 01:42:10;;;;;;;5.50;1.60;;;;;;;;;;5072034;28;20550;-73
2023/03/23 01:44:35;;;;;;;0.97;0.83;;;;;;;;;;5056517;28;20016;-71
2023/03/23 01:47:00;;;;;;;0.82;0.77;;;;;;;;;;5067808;28;20358;-72
2023/03/23 01:49:33;;;;;;;5.40;1.42;;;;;;;;;;5060418;28;20025;-71
2023/03/23 01:52:01;;;;;;;2.90;1.17;;;;;;;;;;5053326;28;20058;-72
2023/03/23 01:54:28;;;;;;;3.28;1.20;;;;;;;;;;5066352;28;20016;-72
2023/03/23 01:56:56;;;;;;;1.65;1.10;;;;;;;;;;5070139;28;20024;-72
2023/03/23 01:59:22;;;;;;;5.38;0.93;;;;;;;;;;5065165;28;20009;-72
2023/03/23 02:01:48;;;;;;;4.50;0.98;;;;;;;;;;5060739;28;20397;-71
2023/03/23 02:04:14;;;;;;;2.33;1.10;;;;;;;;;;5058426;28;20073;-72
2023/03/23 02:06:39;;;;;;;2.63;1.20;;;;;;;;;;5060439;28;20021;-72
2023/03/23 02:09:07;;;;;;;5.07;1.30;;;;;;;;;;5065137;28;20016;-72
2023/03/23 02:11:33;;;;;;;2.85;1.15;;;;;;;;;;5057078;28;20032;-71
2023/03/23 02:13:58;;;;;;;3.83;1.40;;;;;;;;;;5069661;28;20206;-72
2023/03/23 02:16:23;;;;;;;2.75;1.42;;;;;;;;;;5057285;28;20028;-71
2023/03/23 02:19:05;;;;;;;3.40;1.83;;;;;;;;;;5056191;28;20057;-71
2023/03/23 02:21:48;;;;;;;1.45;1.02;;;;;;;;;;5058209;28;20370;-71
2023/03/23 02:24:26;;;;;;;3.35;1.60;;;;;;;;;;5060127;28;20095;-71
2023/03/23 02:27:02;;;;;;;11.20;1.15;;;;;;;;;;5059978;28;20517;-72
2023/03/23 02:29:48;;;;;;;2.00;1.00;;;;;;;;;;5066283;28;20020;-72
2023/03/23 02:32:43;;;;;;;2.90;1.20;;;;;;;;;;5064252;28;20048;-73
2023/03/23 02:35:15;;;;;;;5.10;1.58;;;;;;;;;;5036418;28;20033;-72
2023/03/23 02:37:46;;;;;;;2.25;1.42;;;;;;;;;;5065968;28;20103;-72
2023/03/23 02:40:22;;;;;;;4.57;0.80;;;;;;;;;;5065011;28;20066;-71
2023/03/23 02:42:50;;;;;;;1.27;0.82;;;;;;;;;;5068907;28;20035;-72
2023/03/23 02:45:15;;;;;;;2.83;1.50;;;;;;;;;;5065984;28;20428;-72
2023/03/23 02:47:41;;;;;;;2.95;1.65;;;;;;;;;;5062067;28;20066;-71
2023/03/23 02:50:08;;;;;;;3.05;1.10;;;;;;;;;;5059309;28;20017;-73
2023/03/23 02:52:35;;;;;;;1.98;1.20;;;;;;;;;;5052501;28;20028;-72
2023/03/23 02:55:02;;;;;;;1.15;0.80;;;;;;;;;;5066566;28;20013;-72
2023/03/23 02:57:27;;;;;;;1.77;1.23;;;;;;;;;;5051653;28;20016;-72
2023/03/23 02:59:53;;;;;;;3.10;1.75;;;;;;;;;;5053869;28;20437;-72
2023/03/23 03:02:23;;;;;;;4.18;2.00;;;;;;;;;;5069966;28;20378;-72
2023/03/23 03:04:56;;;;;;;2.65;0.80;;;;;;;;;;5053083;28;20017;-71
2023/03/23 03:07:35;;;;;;;4.13;1.45;;;;;;;;;;5058024;28;20096;-72
2023/03/23 03:10:21;;;;;;;3.10;1.50;;;;;;;;;;5058871;28;20421;-72
2023/03/23 03:12:51;;;;;;;0.93;0.60;;;;;;;;;;5046640;28;20041;-72
2023/03/23 03:15:23;;;;;;;1.52;0.88;;;;;;;;;;5062273;28;20052;-73
2023/03/23 03:17:53;;;;;;;5.53;1.50;;;;;;;;;;5061618;28;20040;-72
2023/03/23 03:20:19;;;;;;;2.28;0.82;;;;;;;;;;5054446;28;20043;-72
2023/03/23 03:22:45;;;;;;;4.22;1.33;;;;;;;;;;5068383;28;20029;-72
2023/03/23 03:25:13;;;;;;;3.72;2.13;;;;;;;;;;5058750;28;20453;-72
2023/03/23 03:27:40;;;;;;;0.73;0.60;;;;;;;;;;5063493;28;20100;-74
2023/03/23 03:30:09;;;;;;;5.72;1.45;;;;;;;;;;5051518;28;20021;-72
2023/03/23 03:32:38;;;;;;;2.47;1.20;;;;;;;;;;5064344;28;20020;-72
2023/03/23 03:35:05;;;;;;;1.63;0.90;;;;;;;;;;5068221;28;20027;-71
2023/03/23 03:37:36;;;;;;;0.57;0.38;;;;;;;;;;5061197;28;20012;-72
2023/03/23 03:40:02;;;;;;;3.17;1.25;;;;;;;;;;5051438;28;20013;-72
2023/03/23 03:42:28;;;;;;;1.83;0.73;;;;;;;;;;5062109;28;20043;-74
2023/03/23 03:44:53;;;;;;;3.27;1.37;;;;;;;;;;5069603;28;20494;-71
2023/03/23 03:47:18;;;;;;;2.07;0.73;;;;;;;;;;5064989;28;20267;-73
2023/03/23 03:49:43;;;;;;;1.50;0.77;;;;;;;;;;5069601;28;20267;-71
2023/03/23 03:52:09;;;;;;;3.50;1.20;;;;;;;;;;5056645;28;20289;-72
2023/03/23 03:54:35;;;;;;;1.80;1.00;;;;;;;;;;5054335;28;20255;-73
2023/03/23 03:57:01;;;;;;;2.70;1.30;;;;;;;;;;5060924;28;20024;-73
2023/03/23 03:59:26;;;;;;;3.17;1.23;;;;;;;;;;5056195;28;20027;-71
2023/03/23 04:01:53;;;;;;;2.42;1.23;;;;;;;;;;5061546;28;20046;-72
2023/03/23 04:04:19;;;;;;;3.20;1.45;;;;;;;;;;5052455;28;20021;-71
2023/03/23 04:06:44;;;;;;;2.10;1.25;;;;;;;;;;5051965;28;20674;-72
2023/03/23 04:09:10;;;;;;;1.30;0.70;;;;;;;;;;5058055;28;20099;-72
2023/03/23 04:11:35;;;;;;;3.35;0.70;;;;;;;;;;5064529;28;20798;-71
2023/03/23 04:14:00;;;;;;;2.67;0.70;;;;;;;;;;5060365;28;20469;-72
2023/03/23 04:16:26;;;;;;;3.90;1.10;;;;;;;;;;5064183;28;20324;-73
2023/03/23 04:18:51;;;;;;;1.65;0.80;;;;;;;;;;5064081;28;20074;-72
2023/03/23 04:21:16;;;;;;;2.67;1.08;;;;;;;;;;5050302;28;20028;-73
2023/03/23 04:23:41;;;;;;;3.03;0.90;;;;;;;;;;5052644;28;20012;-72
2023/03/23 04:26:07;;;;;;;0.57;0.40;;;;;;;;;;5059722;28;20313;-72
2023/03/23 04:28:33;;;;;;;3.28;0.60;;;;;;;;;;5053338;28;20268;-72
2023/03/23 04:31:00;;;;;;;1.27;0.65;;;;;;;;;;5050209;28;20107;-71
2023/03/23 04:33:26;;;;;;;3.95;1.60;;;;;;;;;;5055296;28;20435;-73
2023/03/23 04:35:52;;;;;;;2.72;1.10;;;;;;;;;;5055990;28;20569;-72
2023/03/23 04:38:20;;;;;;;7.85;1.90;;;;;;;;;;5056082;28;20112;-71
2023/03/23 04:40:45;;;;;;;6.90;3.40;;;;;;;;;;5064979;28;20024;-71
2023/03/23 04:43:12;;;;;;;14.25;5.78;;;;;;;;;;5059497;28;20378;-72
2023/03/23 04:45:41;;;;;;;9.07;2.97;;;;;;;;;;5056816;28;20024;-71
2023/03/23 04:48:06;;;;;;;6.15;2.25;;;;;;;;;;5050252;28;20021;-72
2023/03/23 04:50:32;;;;;;;2.17;1.38;;;;;;;;;;5049677;28;20093;-71
2023/03/23 04:52:58;;;;;;;2.35;1.33;;;;;;;;;;5054189;28;20173;-71
2023/03/23 04:55:24;;;;;;;1.35;0.70;;;;;;;;;;5051599;28;20518;-71
2023/03/23 04:57:50;;;;;;;3.38;0.73;;;;;;;;;;5049710;28;20474;-72
2023/03/23 05:00:16;;;;;;;2.40;0.98;;;;;;;;;;5049563;28;20028;-72
2023/03/23 05:02:42;;;;;;;0.60;0.45;;;;;;;;;;5055811;28;20032;-72
2023/03/23 05:05:08;;;;;;;4.75;1.30;;;;;;;;;;5049878;28;20025;-72
2023/03/23 05:07:34;;;;;;;2.63;0.75;;;;;;;;;;5067518;28;20374;-73
2023/03/23 05:09:59;;;;;;;2.08;1.17;;;;;;;;;;5064281;28;20520;-73
2023/03/23 05:12:24;;;;;;;3.38;1.52;;;;;;;;;;5061735;28;20130;-71
2023/03/23 05:14:50;;;;;;;2.13;0.73;;;;;;;;;;5055496;28;20396;-73
2023/03/23 05:17:16;;;;;;;1.70;0.68;;;;;;;;;;5055203;28;20025;-71
2023/03/23 05:19:43;;;;;;;2.90;0.88;;;;;;;;;;5050644;28;20029;-72
2023/03/23 05:22:09;;;;;;;1.10;0.60;;;;;;;;;;5049459;28;20048;-72
2023/03/23 05:24:34;;;;;;;2.72;1.52;;;;;;;;;;5056434;28;20060;-71
2023/03/23 05:26:59;;;;;;;4.60;2.53;;;;;;;;;;5055533;28;20014;-71
2023/03/23 05:29:25;;;;;;;9.93;4.93;;;;;;;;;;5060421;28;20020;-72
2023/03/23 05:31:50;;;;;;;6.85;3.33;;;;;;;;;;5065805;28;20491;-72
2023/03/23 05:34:16;;;;;;;2.67;2.15;;;;;;;;;;5057857;28;20048;-72
2023/03/23 05:36:43;;;;;;;3.40;1.37;;;;;;;;;;5052671;28;20040;-73
2023/03/23 05:39:09;;;;;;;2.20;1.35;;;;;;;;;;5060819;28;20319;-72
2023/03/23 05:41:35;;;;;;;3.05;1.17;;;;;;;;;;5049032;28;20037;-71
2023/03/23 05:44:00;;;;;;;2.88;0.95;;;;;;;;;;5046470;28;20021;-73
2023/03/23 05:46:25;;;;;;;3.73;1.50;;;;;;;;;;5050226;28;20221;-72
2023/03/23 05:48:50;;;;;;;3.10;1.20;;;;;;;;;;5049398;28;20282;-72
2023/03/23 05:51:16;;;;;;;2.87;1.27;;;;;;;;;;5055830;28;20262;-73
2023/03/23 05:53:41;;;;;;;2.30;1.45;;;;;;;;;;5054103;28;20719;-71
2023/03/23 05:56:07;;;;;;;1.67;1.17;;;;;;;;;;5056429;28;20017;-71
2023/03/23 05:58:32;;;;;;;4.28;1.88;;;;;;;;;;5055848;28;20882;-71
2023/03/23 06:00:57;;;;;;;2.28;1.48;;;;;;;;;;5056242;28;20074;-72
2023/03/23 06:03:22;;;;;;;6.50;2.40;;;;;;;;;;5052812;28;20013;-72
2023/03/23 06:05:48;;;;;;;5.53;2.30;;;;;;;;;;5047907;28;20824;-71
2023/03/23 06:08:13;;;;;;;3.22;1.77;;;;;;;;;;5056136;28;20025;-72
2023/03/23 06:10:39;;;;;;;3.47;1.83;;;;;;;;;;5052999;28;20037;-72
2023/03/23 06:13:04;;;;;;;1.90;1.08;;;;;;;;;;5052673;28;20021;-72
2023/03/23 06:15:32;;;;;;;3.35;1.80;;;;;;;;;;5057346;28;20024;-72
2023/03/23 06:18:03;;;;;;;2.38;1.35;;;;;;;;;;5055231;28;20117;-72
2023/03/23 06:20:29;;;;;;;2.10;1.25;;;;;;;;;;5055352;28;20098;-72
2023/03/23 06:22:54;;;;;;;3.53;1.45;;;;;;;;;;5046259;28;20017;-72
2023/03/23 06:25:19;;;;;;;3.40;1.70;;;;;;;;;;5050822;28;20036;-72
2023/03/23 06:27:46;;;;;;;4.05;0.95;;;;;;;;;;5053338;28;20100;-72
2023/03/23 06:30:11;;;;;;;4.10;1.67;;;;;;;;;;5051868;28;20052;-72
2023/03/23 06:32:37;;;;;;;2.92;1.27;;;;;;;;;;5051143;28;20079;-71
2023/03/23 06:35:02;;;;;;;5.82;1.88;;;;;;;;;;5054965;28;20036;-72
2023/03/23 06:37:28;;;;;;;3.28;1.42;;;;;;;;;;5050881;28;20035;-72
2023/03/23 06:39:53;;;;;;;3.85;1.90;;;;;;;;;;5053361;28;20108;-72
2023/03/23 06:42:19;;;;;;;4.35;1.58;;;;;;;;;;5057860;28;20025;-72
2023/03/23 06:44:45;;;;;;;3.55;1.30;;;;;;;;;;5051340;28;20025;-72
2023/03/23 06:47:10;;;;;;;2.13;1.08;;;;;;;;;;5050348;28;20025;-72
2023/03/23 06:49:35;;;;;;;4.20;1.90;;;;;;;;;;5053566;28;20053;-72
2023/03/23 06:52:01;;;;;;;5.60;1.85;;;;;;;;;;5049773;28;20358;-72
2023/03/23 06:54:27;;;;;;;4.45;1.45;;;;;;;;;;5054104;28;20482;-72
2023/03/23 06:56:52;;;;;;;9.73;3.83;;;;;;;;;;5064025;28;20103;-72
2023/03/23 06:59:17;;;;;;;7.30;2.10;;;;;;;;;;5054857;28;20366;-72
2023/03/23 07:01:42;;;;;;;7.73;2.47;;;;;;;;;;5048044;28;20377;-72
2023/03/23 07:04:07;;;;;;;16.20;1.92;;;;;;;;;;5052889;28;20365;-72
2023/03/23 07:06:33;;;;;;;4.80;1.90;;;;;;;;;;5062456;28;20112;-72
2023/03/23 07:08:58;;;;;;;4.40;1.90;;;;;;;;;;5054326;28;20056;-72
2023/03/23 07:11:23;;;;;;;5.88;2.05;;;;;;;;;;5057132;28;20059;-72
2023/03/23 07:13:49;;;;;;;7.30;1.98;;;;;;;;;;5058147;28;20025;-73
2023/03/23 07:16:14;;;;;;;11.05;1.95;;;;;;;;;;5058281;28;20139;-72
2023/03/23 07:18:40;;;;;;;5.40;1.38;;;;;;;;;;5059672;28;20119;-72
2023/03/23 07:21:05;;;;;;;7.30;1.30;;;;;;;;;;5058330;28;20060;-72
2023/03/23 07:23:31;;;;;;;2.65;1.52;;;;;;;;;;5060981;28;20017;-72
2023/03/23 07:25:56;;;;;;;2.55;1.42;;;;;;;;;;5060780;28;20079;-72
2023/03/23 07:28:22;;;;;;;4.97;1.50;;;;;;;;;;5052970;28;20017;-72
2023/03/23 07:30:47;;;;;;;12.35;1.80;;;;;;;;;;5051370;28;20033;-72
2023/03/23 07:33:12;;;;;;;1.77;0.70;;;;;;;;;;5054043;28;20021;-72
2023/03/23 07:35:38;;;;;;;4.95;1.02;;;;;;;;;;5055765;28;20996;-72
2023/03/23 07:38:04;;;;;;;5.60;2.50;;;;;;;;;;5052850;28;20036;-72
2023/03/23 07:40:32;;;;;;;2.58;0.88;;;;;;;;;;5058155;28;20466;-72
2023/03/23 07:42:58;;;;;;;2.60;0.93;;;;;;;;;;5058523;28;20032;-72
2023/03/23 07:45:23;;;;;;;6.17;1.83;;;;;;;;;;5054166;28;20024;-72
2023/03/23 07:47:49;;;;;;;2.45;0.70;;;;;;;;;;5050729;28;20329;-72
2023/03/23 07:50:14;;;;;;;1.15;0.80;;;;;;;;;;5061605;28;20025;-72
2023/03/23 07:52:41;;;;;;;5.37;1.27;;;;;;;;;;5051968;28;20132;-72
2023/03/23 07:55:06;;;;;;;3.17;1.27;;;;;;;;;;5053020;28;20283;-72
2023/03/23 07:57:32;;;;;;;3.00;0.82;;;;;;;;;;5055835;28;20444;-72
2023/03/23 07:59:57;;;;;;;4.97;1.25;;;;;;;;;;5056803;28;20474;-70
2023/03/23 08:02:23;;;;;;;3.50;1.13;;;;;;;;;;5049029;28;20463;-70
2023/03/23 08:04:49;;;;;;;3.60;1.35;;;;;;;;;;5056563;28;20021;-70
2023/03/23 08:07:16;;;;;;;2.55;1.38;;;;;;;;;;5057164;28;20092;-70
2023/03/23 08:09:41;;;;;;;5.97;1.30;;;;;;;;;;5056391;28;20058;-72
2023/03/23 08:12:06;;;;;;;1.90;1.00;;;;;;;;;;5057968;28;20052;-72
2023/03/23 08:14:32;;;;;;;3.47;1.20;;;;;;;;;;5050689;28;20020;-72
2023/03/23 08:16:58;;;;;;;1.25;0.85;;;;;;;;;;5052256;28;20021;-70
2023/03/23 08:19:23;;;;;;;2.47;0.95;;;;;;;;;;5054398;28;20670;-70
2023/03/23 08:21:49;;;;;;;8.45;1.48;;;;;;;;;;5062607;28;20020;-70
2023/03/23 08:24:14;;;;;;;3.10;1.40;;;;;;;;;;5056777;28;20507;-70
2023/03/23 08:26:40;;;;;;;3.25;0.82;;;;;;;;;;5061068;28;20074;-70
2023/03/23 08:29:05;;;;;;;4.78;1.15;;;;;;;;;;5050967;28;20427;-70
2023/03/23 08:31:31;;;;;;;4.68;1.17;;;;;;;;;;5057637;28;20020;-70
2023/03/23 08:33:56;;;;;;;8.13;1.55;;;;;;;;;;5050285;28;20092;-70
2023/03/23 08:36:22;;;;;;;5.50;1.40;;;;;;;;;;5057515;28;20509;-70
2023/03/23 08:38:47;;;;;;;3.42;1.20;;;;;;;;;;5050393;28;20520;-71
2023/03/23 08:41:13;;;;;;;5.45;1.30;;;;;;;;;;5050947;28;20021;-70
2023/03/23 08:43:39;;;;;;;7.75;1.30;;;;;;;;;;5057244;28;20027;-70
2023/03/23 08:46:08;;;;;;;2.35;1.10;;;;;;;;;;5050820;28;20486;-70
2023/03/23 08:48:35;;;;;;;5.55;1.10;;;;;;;;;;5064245;28;20028;-70
2023/03/23 08:51:00;;;;;;;2.67;1.27;;;;;;;;;;5055435;28;20021;-70
2023/03/23 08:53:26;;;;;;;4.05;1.13;;;;;;;;;;5053770;28;20024;-70
2023/03/23 08:55:51;;;;;;;5.45;1.45;;;;;;;;;;5051096;28;20029;-70
2023/03/23 08:58:17;;;;;;;3.17;1.20;;;;;;;;;;5055706;28;20017;-70
2023/03/23 09:00:43;;;;;;;9.50;1.63;;;;;;;;;;5063606;28;20786;-70
2023/03/23 09:03:08;;;;;;;7.25;1.50;;;;;;;;;;5061626;28;20016;-70
2023/03/23 09:05:33;;;;;;;4.18;1.00;;;;;;;;;;5054675;28;20830;-70
2023/03/23 09:07:58;;;;;;;9.77;1.50;;;;;;;;;;5051018;28;20040;-73
2023/03/23 09:10:25;;;;;;;5.07;1.43;;;;;;;;;;5058380;28;20062;-72
2023/03/23 09:12:51;;;;;;;9.05;1.27;;;;;;;;;;5060022;28;20774;-72
2023/03/23 09:15:17;;;;;;;7.35;1.55;;;;;;;;;;5060382;28;20082;-72
2023/03/23 09:17:44;;;;;;;3.80;1.15;;;;;;;;;;5069367;28;20027;-72
2023/03/23 09:20:11;;;;;;;3.33;1.70;;;;;;;;;;5054641;28;20019;-72
2023/03/23 09:22:47;;;;;;;8.18;1.23;;;;;;;;;;5054065;28;20024;-72
2023/03/23 09:25:15;;;;;;;7.13;1.58;;;;;;;;;;5054068;28;20013;-70
2023/03/23 09:27:40;;;;;;;5.45;1.80;;;;;;;;;;5056615;28;20440;-70
2023/03/23 09:30:07;;;;;;;2.83;1.10;;;;;;;;;;5055689;28;20017;-70
2023/03/23 09:32:34;;;;;;;4.95;1.17;;;;;;;;;;5056625;28;20074;-71
2023/03/23 09:35:00;;;;;;;9.63;2.10;;;;;;;;;;5059023;28;20021;-70
2023/03/23 09:37:25;;;;;;;4.95;0.88;;;;;;;;;;5054951;28;20024;-70
2023/03/23 09:39:51;;;;;;;2.73;1.53;;;;;;;;;;5058570;28;20100;-71
2023/03/23 09:42:27;;;;;;;6.47;2.60;;;;;;;;;;5053137;28;20309;-72
2023/03/23 09:44:55;;;;;;;2.72;1.10;;;;;;;;;;5059625;28;20029;-72
2023/03/23 09:47:28;;;;;;;6.10;1.23;;;;;;;;;;5061241;28;20022;-72
2023/03/23 09:49:59;;;;;;;4.90;1.38;;;;;;;;;;5054323;28;20108;-72
2023/03/23 09:52:37;;;;;;;5.00;1.05;;;;;;;;;;5060017;28;20191;-72
2023/03/23 09:55:02;;;;;;;5.90;0.95;;;;;;;;;;5054836;28;20557;-72
2023/03/23 09:57:32;;;;;;;7.40;1.90;;;;;;;;;;5054614;28;20521;-72
2023/03/23 10:00:04;;;;;;;5.13;1.10;;;;;;;;;;5067274;28;20434;-72
2023/03/23 10:02:32;;;;;;;8.13;2.17;;;;;;;;;;5066363;28;20055;-72
2023/03/23 10:05:14;;;;;;;5.10;1.48;;;;;;;;;;5054536;28;20009;-71
2023/03/23 10:07:40;;;;;;;13.27;3.10;;;;;;;;;;5054510;28;20021;-72
2023/03/23 10:10:06;;;;;;;5.22;1.10;;;;;;;;;;5055473;28;20020;-70
2023/03/23 10:12:36;;;;;;;4.78;1.45;;;;;;;;;;5058748;28;20029;-70
2023/03/23 10:15:16;;;;;;;7.95;1.40;;;;;;;;;;5054887;28;20037;-70
2023/03/23 10:17:42;;;;;;;5.75;0.80;;;;;;;;;;5057758;28;20150;-70
2023/03/23 10:20:14;;;;;;;5.28;1.60;;;;;;;;;;5057301;28;20559;-70
2023/03/23 10:23:01;;;;;;;6.03;1.50;;;;;;;;;;5059791;28;20024;-70
2023/03/23 10:25:29;;;;;;;10.35;1.48;;;;;;;;;;5042495;28;20041;-70
2023/03/23 10:28:12;;;;;;;6.07;1.40;;;;;;;;;;5052705;28;20021;-70
2023/03/23 10:30:39;;;;;;;9.65;1.40;;;;;;;;;;5061749;28;20016;-71
2023/03/23 10:33:10;;;;;;;8.70;1.17;;;;;;;;;;5060388;28;20460;-71
2023/03/23 10:35:38;;;;;;;7.00;0.90;;;;;;;;;;5068571;28;20427;-70
2023/03/23 10:38:09;;;;;;;7.07;1.17;;;;;;;;;;5069482;28;20025;-70
2023/03/23 10:40:35;;;;;;;1.92;0.55;;;;;;;;;;5066010;28;20180;-70
2023/03/23 10:43:01;;;;;;;2.08;0.55;;;;;;;;;;5056006;28;20410;-70
2023/03/23 10:45:32;;;;;;;5.68;1.30;;;;;;;;;;5060199;28;20023;-70
2023/03/23 10:48:01;;;;;;;5.15;0.93;;;;;;;;;;5061873;28;20049;-71
2023/03/23 10:50:29;;;;;;;7.45;0.90;;;;;;;;;;5057794;28;20417;-70
2023/03/23 10:52:57;;;;;;;8.77;1.63;;;;;;;;;;5053179;28;20534;-70
2023/03/23 10:55:23;;;;;;;6.47;0.88;;;;;;;;;;5063729;28;20029;-72
2023/03/23 10:58:02;;;;;;;5.28;1.33;;;;;;;;;;5056922;28;20020;-70
2023/03/23 11:00:28;;;;;;;2.55;0.60;;;;;;;;;;5055909;28;20162;-71
2023/03/23 11:03:02;;;;;;;5.30;0.65;;;;;;;;;;5052333;28;20452;-71
2023/03/23 11:05:32;;;;;;;4.88;1.30;;;;;;;;;;5055362;28;20488;-71
2023/03/23 11:07:57;;;;;;;;;;;;;;;;;;5060043;28;20032;-71
2023/03/23 11:10:27;;;;;;;3.60;1.10;;;;;;;;;;5055439;28;20007;-71
2023/03/23 11:12:52;;;;;;;5.32;0.80;;;;;;;;;;5060762;28;20100;-72
2023/03/23 11:15:27;;;;;;;3.45;1.55;;;;;;;;;;5053292;28;20055;-71
2023/03/23 11:18:00;;;;;;;2.83;0.75;;;;;;;;;;5057500;28;20024;-72
2023/03/23 11:20:26;;;;;;;1.52;0.50;;;;;;;;;;5052865;28;20027;-72
2023/03/23 11:22:51;;;;;;;6.43;0.70;;;;;;;;;;5055780;28;20488;-71
2023/03/23 11:25:17;;;;;;;2.53;0.50;;;;;;;;;;5066373;28;20152;-72
2023/03/23 11:27:43;;;;;;;2.08;0.65;;;;;;;;;;5054588;28;20382;-71
2023/03/23 11:30:19;;;;;;;2.33;0.55;;;;;;;;;;5060280;28;20104;-71
2023/03/23 11:32:44;;;;;;;5.65;0.82;;;;;;;;;;5053381;28;20012;-71
2023/03/23 11:35:23;;;;;;;1.73;0.77;;;;;;;;;;5067765;28;20019;-71
2023/03/23 11:37:51;;;;;;;3.17;0.60;;;;;;;;;;5059137;28;20036;-71
2023/03/23 11:40:19;;;;;;;2.90;1.42;;;;;;;;;;5062076;28;20066;-71
2023/03/23 11:42:46;;;;;;;4.50;1.00;;;;;;;;;;5057817;28;20097;-72
2023/03/23 11:45:22;;;;;;;5.97;1.17;;;;;;;;;;5064184;28;20047;-71
2023/03/23 11:48:06;;;;;;;5.75;1.08;;;;;;;;;;5055130;28;20100;-71
2023/03/23 11:50:39;;;;;;;3.70;0.98;;;;;;;;;;5059931;28;20012;-72
2023/03/23 11:53:12;;;;;;;6.35;1.13;;;;;;;;;;5051983;28;20104;-71
2023/03/23 11:55:52;;;;;;;6.20;1.00;;;;;;;;;;5070741;28;20099;-71
2023/03/23 11:58:19;;;;;;;6.63;0.70;;;;;;;;;;5057897;28;20103;-71
2023/03/23 12:00:58;;;;;;;2.53;0.98;;;;;;;;;;5067466;28;20107;-72
2023/03/23 12:03:26;;;;;;;2.17;0.97;;;;;;;;;;5056698;28;20382;-75
2023/03/23 12:05:54;;;;;;;4.78;1.02;;;;;;;;;;5054963;28;20044;-72
2023/03/23 12:08:19;;;;;;;7.65;1.10;;;;;;;;;;5057417;28;20013;-72
2023/03/23 12:11:05;;;;;;;11.77;1.75;;;;;;;;;;5065540;28;20489;-71
2023/03/23 12:13:52;;;;;;;8.55;1.95;;;;;;;;;;5055597;28;20021;-71
2023/03/23 12:16:30;;;;;;;5.05;1.83;;;;;;;;;;5053014;28;20024;-70
2023/03/23 12:18:55;;;;;;;5.75;1.40;;;;;;;;;;5055134;28;20091;-71
2023/03/23 12:21:20;;;;;;;7.90;1.65;;;;;;;;;;5059722;28;20482;-71
2023/03/23 12:23:52;;;;;;;8.00;1.63;;;;;;;;;;5064795;28;20029;-71
2023/03/23 12:26:26;;;;;;;7.53;1.80;;;;;;;;;;5051806;28;20247;-71
2023/03/23 12:28:57;;;;;;;9.93;2.22;;;;;;;;;;5059203;28;20124;-71
2023/03/23 12:31:22;;;;;;;11.93;2.10;;;;;;;;;;5058892;28;20025;-71
2023/03/23 12:33:55;;;;;;;5.13;1.97;;;;;;;;;;5057921;28;20025;-71
2023/03/23 12:36:38;;;;;;;9.55;2.47;;;;;;;;;;5055534;28;20827;-71
2023/03/23 12:39:09;;;;;;;7.20;2.20;;;;;;;;;;5063935;28;20033;-71
2023/03/23 12:41:35;;;;;;;8.95;2.90;;;;;;;;;;5061343;28;20033;-70
2023/03/23 12:44:00;;;;;;;6.80;2.33;;;;;;;;;;5050361;28;20058;-71
2023/03/23 12:46:35;;;;;;;11.02;2.83;;;;;;;;;;5051162;28;20013;-71
2023/03/23 12:49:04;;;;;;;9.30;3.30;;;;;;;;;;5049896;28;20344;-71
2023/03/23 12:51:33;;;;;;;12.57;2.83;;;;;;;;;;5052161;28;20147;-71
2023/03/23 12:54:03;;;;;;;9.50;5.45;;;;;;;;;;5060657;28;22502;-71
2023/03/23 12:56:32;;;;;;;9.98;3.28;;;;;;;;;;5055059;28;20024;-71
2023/03/23 12:59:10;;;;;;;8.52;2.72;;;;;;;;;;5052615;28;20028;-72
2023/03/23 13:01:38;;;;;;;6.95;2.45;;;;;;;;;;5060583;28;20536;-72
2023/03/23 13:04:11;;;;;;;6.97;2.58;;;;;;;;;;5063413;28;20035;-71
2023/03/23 13:06:38;;;;;;;9.95;3.13;;;;;;;;;;5065506;28;20036;-71
2023/03/23 13:09:38;;;;;;;8.57;2.53;;;;;;;;;;5062395;28;20024;-70
2023/03/23 13:12:04;;;;;;;;;;;;;;;;;;5036981;28;20032;-70
2023/03/23 13:14:32;;;;;;;4.47;1.25;;;;;;;;;;5050886;28;19915;-72
2023/03/23 13:16:57;;;;;;;7.93;1.75;;;;;;;;;;5061584;28;20465;-71
2023/03/23 13:19:27;;;;;;;1.33;0.88;;;;;;;;;;5067618;28;20060;-71
2023/03/23 13:21:52;;;;;;;1.80;0.70;;;;;;;;;;5056753;28;20140;-71
2023/03/23 13:24:20;;;;;;;1.93;0.80;;;;;;;;;;5055080;28;20092;-71
2023/03/23 13:26:47;;;;;;;4.72;0.85;;;;;;;;;;5062625;28;20016;-71
2023/03/23 13:29:14;;;;;;;5.45;1.17;;;;;;;;;;5060035;28;20020;-71
2023/03/23 13:31:40;;;;;;;5.45;1.00;;;;;;;;;;5051115;28;20034;-71
2023/03/23 13:34:11;;;;;;;4.63;1.08;;;;;;;;;;5057677;28;20037;-70
2023/03/23 13:36:38;;;;;;;4.35;1.02;;;;;;;;;;5062216;28;20657;-70
2023/03/23 13:39:07;;;;;;;7.13;1.20;;;;;;;;;;5058644;28;20594;-71
2023/03/23 13:41:33;;;;;;;5.60;0.82;;;;;;;;;;5065878;28;20090;-70
2023/03/23 13:44:05;;;;;;;3.25;0.93;;;;;;;;;;5063089;28;20715;-70
2023/03/23 13:46:30;;;;;;;3.58;1.00;;;;;;;;;;5059015;28;20021;-70
2023/03/23 13:49:14;;;;;;;7.18;1.15;;;;;;;;;;5060589;28;20025;-71
2023/03/23 13:51:43;;;;;;;1.55;1.00;;;;;;;;;;5064366;28;20032;-70
2023/03/23 13:54:20;;;;;;;1.40;0.55;;;;;;;;;;5062592;28;20025;-71
2023/03/23 13:56:52;;;;;;;1.83;0.70;;;;;;;;;;5060646;28;20024;-71
2023/03/23 13:59:27;;;;;;;1.40;0.43;;;;;;;;;;5050525;28;20111;-70
2023/03/23 14:01:53;;;;;;;3.13;0.60;;;;;;;;;;5050890;28;20021;-72
2023/03/23 14:04:19;;;;;;;2.95;0.90;;;;;;;;;;5050831;28;20039;-72
2023/03/23 14:06:46;;;;;;;4.10;0.95;;;;;;;;;;5059954;28;20016;-71
2023/03/23 14:09:19;;;;;;;4.32;0.68;;;;;;;;;;5064147;28;20017;-71
2023/03/23 14:11:55;;;;;;;2.28;0.57;;;;;;;;;;5055191;28;20028;-71
2023/03/23 14:14:23;;;;;;;2.47;0.75;;;;;;;;;;5054786;28;20431;-71
2023/03/23 14:16:51;;;;;;;5.43;0.90;;;;;;;;;;5055975;28;20024;-71
2023/03/23 14:19:24;;;;;;;3.80;0.70;;;;;;;;;;5058945;28;20020;-70
2023/03/23 14:21:57;;;;;;;3.80;0.80;;;;;;;;;;5058871;28;20056;-71
2023/03/23 14:24:24;;;;;;;5.75;0.98;;;;;;;;;;5059858;28;20017;-71
2023/03/23 14:26:52;;;;;;;2.50;0.75;;;;;;;;;;5050980;28;20382;-71
2023/03/23 14:29:17;;;;;;;24.60;0.88;;;;;;;;;;5054332;28;20017;-71
2023/03/23 14:31:43;;;;;;;4.63;0.93;;;;;;;;;;5056491;28;20024;-71
2023/03/23 14:34:13;;;;;;;3.67;0.95;;;;;;;;;;5065074;28;20485;-72
2023/03/23 14:36:39;;;;;;;7.38;0.90;;;;;;;;;;5061195;28;20021;-73
2023/03/23 14:39:10;;;;;;;3.03;0.93;;;;;;;;;;5064056;28;20027;-71
2023/03/23 14:41:36;;;;;;;3.95;0.80;;;;;;;;;;5064403;28;20047;-70
2023/03/23 14:44:03;;;;;;;5.75;1.13;;;;;;;;;;5060079;28;20485;-70
2023/03/23 14:46:29;;;;;;;5.80;1.00;;;;;;;;;;5051882;28;20020;-69
2023/03/23 14:48:55;;;;;;;4.18;1.30;;;;;;;;;;5065578;28;21775;-69